sensor_id;sensor_type;location;lat;lon;timestamp;pressure;altitude;pressure_sealevel;temperature;humidity
42247;BME280;27913;42.722;23.268;2022-08-19T00:04:01;94737.78;;;24.08;52.81
42247;BME280;27913;42.722;23.268;2022-08-19T00:06:29;94712.44;;;23.89;52.82
42247;BME280;27913;42.722;23.268;2022-08-19T00:08:56;94674.25;;;23.58;52.99
42247;BME280;27913;42.722;23.268;2022-08-19T00:11:22;94723.16;;;23.84;53.43
42247;BME280;27913;42.722;23.268;2022-08-19T00:13:48;94727.00;;;23.73;53.53
42247;BME280;27913;42.722;23.268;2022-08-19T00:16:16;94788.81;;;24.08;53.47
42247;BME280;27913;42.722;23.268;2022-08-19T00:18:45;94769.28;;;23.97;53.45
42247;BME280;27913;42.722;23.268;2022-08-19T00:21:10;94795.78;;;24.14;53.36
42247;BME280;27913;42.722;23.268;2022-08-19T00:23:36;94757.00;;;23.85;53.71
42247;BME280;27913;42.722;23.268;2022-08-19T00:26:03;94735.66;;;23.64;54.01
42247;BME280;27913;42.722;23.268;2022-08-19T00:28:29;94775.00;;;23.85;53.63
42247;BME280;27913;42.722;23.268;2022-08-19T00:30:55;94795.28;;;24.07;52.96
42247;BME280;27913;42.722;23.268;2022-08-19T00:33:21;94762.88;;;23.93;53.00
42247;BME280;27913;42.722;23.268;2022-08-19T00:35:47;94765.03;;;23.91;53.34
42247;BME280;27913;42.722;23.268;2022-08-19T00:38:12;94794.53;;;23.96;53.05
42247;BME280;27913;42.722;23.268;2022-08-19T00:40:39;94758.09;;;23.79;53.41
42247;BME280;27913;42.722;23.268;2022-08-19T00:43:11;94784.91;;;23.89;53.11
42247;BME280;27913;42.722;23.268;2022-08-19T00:45:41;94720.41;;;23.49;53.83
42247;BME280;27913;42.722;23.268;2022-08-19T00:48:09;94762.72;;;23.73;53.52
42247;BME280;27913;42.722;23.268;2022-08-19T00:50:34;94695.25;;;23.35;53.20
42247;BME280;27913;42.722;23.268;2022-08-19T00:53:01;94711.63;;;23.44;53.64
42247;BME280;27913;42.722;23.268;2022-08-19T00:55:30;94786.53;;;23.85;54.66
42247;BME280;27913;42.722;23.268;2022-08-19T00:58:00;94768.88;;;23.74;54.19
42247;BME280;27913;42.722;23.268;2022-08-19T01:00:28;94717.53;;;23.30;54.80
42247;BME280;27913;42.722;23.268;2022-08-19T01:02:54;94772.47;;;23.53;54.88
42247;BME280;27913;42.722;23.268;2022-08-19T01:05:23;94748.69;;;23.21;54.52
42247;BME280;27913;42.722;23.268;2022-08-19T01:07:50;94741.22;;;23.02;55.16
42247;BME280;27913;42.722;23.268;2022-08-19T01:10:20;94793.22;;;23.22;55.44
42247;BME280;27913;42.722;23.268;2022-08-19T01:12:47;94716.88;;;22.88;54.40
42247;BME280;27913;42.722;23.268;2022-08-19T01:15:16;94781.97;;;23.14;54.74
42247;BME280;27913;42.722;23.268;2022-08-19T01:17:42;94787.63;;;23.02;55.19
42247;BME280;27913;42.722;23.268;2022-08-19T01:20:19;94721.47;;;22.51;54.93
42247;BME280;27913;42.722;23.268;2022-08-19T01:22:48;94760.88;;;22.61;55.66
42247;BME280;27913;42.722;23.268;2022-08-19T01:25:17;94762.22;;;22.63;56.27
42247;BME280;27913;42.722;23.268;2022-08-19T01:27:46;94773.75;;;22.69;56.26
42247;BME280;27913;42.722;23.268;2022-08-19T01:30:16;94745.59;;;22.45;56.48
42247;BME280;27913;42.722;23.268;2022-08-19T01:32:42;94753.09;;;22.54;56.14
42247;BME280;27913;42.722;23.268;2022-08-19T01:35:09;94710.50;;;22.31;56.34
42247;BME280;27913;42.722;23.268;2022-08-19T01:37:48;94771.06;;;22.74;56.81
42247;BME280;27913;42.722;23.268;2022-08-19T01:40:14;94745.59;;;22.61;56.02
42247;BME280;27913;42.722;23.268;2022-08-19T01:42:41;94756.34;;;22.66;56.47
42247;BME280;27913;42.722;23.268;2022-08-19T01:45:08;94654.56;;;22.09;55.70
42247;BME280;27913;42.722;23.268;2022-08-19T01:47:35;94753.09;;;22.75;54.83
42247;BME280;27913;42.722;23.268;2022-08-19T01:50:01;94787.09;;;22.90;55.47
42247;BME280;27913;42.722;23.268;2022-08-19T01:52:27;94765.41;;;22.76;55.06
42247;BME280;27913;42.722;23.268;2022-08-19T01:54:52;94692.31;;;22.33;54.12
42247;BME280;27913;42.722;23.268;2022-08-19T01:57:18;94745.63;;;22.72;54.20
42247;BME280;27913;42.722;23.268;2022-08-19T01:59:44;94781.72;;;22.95;54.45
42247;BME280;27913;42.722;23.268;2022-08-19T02:02:10;94760.31;;;22.79;54.86
42247;BME280;27913;42.722;23.268;2022-08-19T02:04:36;94758.47;;;22.64;55.15
42247;BME280;27913;42.722;23.268;2022-08-19T02:07:04;94794.91;;;22.81;55.46
42247;BME280;27913;42.722;23.268;2022-08-19T02:09:31;94688.31;;;21.94;55.25
42247;BME280;27913;42.722;23.268;2022-08-19T02:11:56;94786.31;;;22.68;55.84
42247;BME280;27913;42.722;23.268;2022-08-19T02:14:22;94787.69;;;22.66;55.97
42247;BME280;27913;42.722;23.268;2022-08-19T02:16:48;94742.41;;;22.33;56.21
42247;BME280;27913;42.722;23.268;2022-08-19T02:19:13;94659.66;;;21.79;56.28
42247;BME280;27913;42.722;23.268;2022-08-19T02:21:39;94780.69;;;22.54;56.28
42247;BME280;27913;42.722;23.268;2022-08-19T02:24:05;94767.28;;;22.33;56.43
42247;BME280;27913;42.722;23.268;2022-08-19T02:26:32;94719.38;;;22.01;56.21
42247;BME280;27913;42.722;23.268;2022-08-19T02:28:57;94754.97;;;22.17;56.25
42247;BME280;27913;42.722;23.268;2022-08-19T02:31:24;94731.38;;;21.88;56.51
42247;BME280;27913;42.722;23.268;2022-08-19T02:33:50;94754.16;;;21.90;57.08
42247;BME280;27913;42.722;23.268;2022-08-19T02:36:17;94785.22;;;22.07;57.14
42247;BME280;27913;42.722;23.268;2022-08-19T02:38:44;94774.75;;;22.00;57.29
42247;BME280;27913;42.722;23.268;2022-08-19T02:41:16;94769.41;;;21.95;57.35
42247;BME280;27913;42.722;23.268;2022-08-19T02:43:42;94666.50;;;21.23;57.62
42247;BME280;27913;42.722;23.268;2022-08-19T02:46:19;94764.31;;;21.83;58.17
42247;BME280;27913;42.722;23.268;2022-08-19T02:48:50;94796.47;;;22.04;58.10
42247;BME280;27913;42.722;23.268;2022-08-19T02:51:21;94761.63;;;21.83;58.20
42247;BME280;27913;42.722;23.268;2022-08-19T02:53:47;94761.91;;;21.87;58.37
42247;BME280;27913;42.722;23.268;2022-08-19T02:56:13;94746.34;;;21.78;57.90
42247;BME280;27913;42.722;23.268;2022-08-19T02:58:38;94763.00;;;21.91;58.33
42247;BME280;27913;42.722;23.268;2022-08-19T03:01:04;94691.66;;;21.38;58.07
42247;BME280;27913;42.722;23.268;2022-08-19T03:03:29;94753.81;;;21.76;58.69
42247;BME280;27913;42.722;23.268;2022-08-19T03:06:09;94791.09;;;22.09;58.33
42247;BME280;27913;42.722;23.268;2022-08-19T03:08:36;94759.50;;;21.90;58.56
42247;BME280;27913;42.722;23.268;2022-08-19T03:11:02;94788.44;;;22.09;58.60
42247;BME280;27913;42.722;23.268;2022-08-19T03:13:28;94722.25;;;21.68;58.49
42247;BME280;27913;42.722;23.268;2022-08-19T03:15:54;94703.22;;;21.54;59.14
42247;BME280;27913;42.722;23.268;2022-08-19T03:18:19;94698.38;;;21.51;58.48
42247;BME280;27913;42.722;23.268;2022-08-19T03:20:48;94791.38;;;22.07;58.83
42247;BME280;27913;42.722;23.268;2022-08-19T03:23:15;94756.53;;;21.81;58.72
42247;BME280;27913;42.722;23.268;2022-08-19T03:25:44;94773.16;;;21.89;59.16
42247;BME280;27913;42.722;23.268;2022-08-19T03:28:14;94793.50;;;22.05;59.18
42247;BME280;27913;42.722;23.268;2022-08-19T03:30:41;94668.38;;;21.28;58.70
42247;BME280;27913;42.722;23.268;2022-08-19T03:33:10;94764.31;;;21.83;57.83
42247;BME280;27913;42.722;23.268;2022-08-19T03:35:37;94727.59;;;21.63;57.10
42247;BME280;27913;42.722;23.268;2022-08-19T03:38:04;94803.16;;;22.06;57.96
42247;BME280;27913;42.722;23.268;2022-08-19T03:40:30;94734.25;;;21.65;57.66
42247;BME280;27913;42.722;23.268;2022-08-19T03:42:56;94680.66;;;21.23;58.22
42247;BME280;27913;42.722;23.268;2022-08-19T03:45:23;94790.03;;;21.89;58.61
42247;BME280;27913;42.722;23.268;2022-08-19T03:47:48;94677.44;;;21.21;58.84
42247;BME280;27913;42.722;23.268;2022-08-19T03:50:14;94689.75;;;21.22;58.74
42247;BME280;27913;42.722;23.268;2022-08-19T03:52:40;94698.81;;;21.16;58.42
42247;BME280;27913;42.722;23.268;2022-08-19T03:55:06;94822.31;;;21.77;59.15
42247;BME280;27913;42.722;23.268;2022-08-19T03:57:33;94707.84;;;20.94;59.18
42247;BME280;27913;42.722;23.268;2022-08-19T03:59:59;94812.94;;;21.69;59.16
42247;BME280;27913;42.722;23.268;2022-08-19T04:02:26;94820.69;;;21.66;59.57
42247;BME280;27913;42.722;23.268;2022-08-19T04:04:53;94829.25;;;21.63;59.49
42247;BME280;27913;42.722;23.268;2022-08-19T04:07:19;94826.81;;;21.56;59.85
42247;BME280;27913;42.722;23.268;2022-08-19T04:09:47;94757.88;;;21.09;59.98
42247;BME280;27913;42.722;23.268;2022-08-19T04:12:13;94727.25;;;20.90;60.06
42247;BME280;27913;42.722;23.268;2022-08-19T04:14:40;94737.69;;;20.91;60.42
42247;BME280;27913;42.722;23.268;2022-08-19T04:17:06;94700.16;;;20.65;59.98
42247;BME280;27913;42.722;23.268;2022-08-19T04:19:33;94806.66;;;21.38;59.89
42247;BME280;27913;42.722;23.268;2022-08-19T04:21:59;94808.50;;;21.32;59.73
42247;BME280;27913;42.722;23.268;2022-08-19T04:24:25;94807.41;;;21.22;60.05
42247;BME280;27913;42.722;23.268;2022-08-19T04:26:51;94801.78;;;21.24;60.53
42247;BME280;27913;42.722;23.268;2022-08-19T04:29:20;94808.19;;;21.23;60.37
42247;BME280;27913;42.722;23.268;2022-08-19T04:31:47;94807.75;;;21.36;60.33
42247;BME280;27913;42.722;23.268;2022-08-19T04:34:15;94837.78;;;21.59;60.43
42247;BME280;27913;42.722;23.268;2022-08-19T04:36:42;94843.31;;;21.42;59.90
42247;BME280;27913;42.722;23.268;2022-08-19T04:39:19;94806.50;;;21.06;59.77
42247;BME280;27913;42.722;23.268;2022-08-19T04:41:45;94772.94;;;20.83;60.76
42247;BME280;27913;42.722;23.268;2022-08-19T04:44:34;94806.59;;;20.84;60.71
42247;BME280;27913;42.722;23.268;2022-08-19T04:47:00;94844.72;;;21.07;61.22
42247;BME280;27913;42.722;23.268;2022-08-19T04:49:26;94791.50;;;20.62;61.48
42247;BME280;27913;42.722;23.268;2022-08-19T04:51:53;94776.94;;;20.47;61.99
42247;BME280;27913;42.722;23.268;2022-08-19T04:54:20;94804.28;;;20.60;62.20
42247;BME280;27913;42.722;23.268;2022-08-19T04:56:51;94777.44;;;20.39;62.60
42247;BME280;27913;42.722;23.268;2022-08-19T04:59:18;94844.50;;;20.81;62.84
42247;BME280;27913;42.722;23.268;2022-08-19T05:01:46;94731.25;;;20.06;62.63
42247;BME280;27913;42.722;23.268;2022-08-19T05:04:17;94850.16;;;20.84;62.94
42247;BME280;27913;42.722;23.268;2022-08-19T05:06:44;94719.06;;;20.15;63.10
42247;BME280;27913;42.722;23.268;2022-08-19T05:09:10;94811.66;;;20.80;62.70
42247;BME280;27913;42.722;23.268;2022-08-19T05:11:36;94768.00;;;20.64;62.18
42247;BME280;27913;42.722;23.268;2022-08-19T05:14:06;94807.97;;;20.92;62.31
42247;BME280;27913;42.722;23.268;2022-08-19T05:16:32;94762.91;;;20.62;62.56
42247;BME280;27913;42.722;23.268;2022-08-19T05:18:57;94851.72;;;21.13;62.39
42247;BME280;27913;42.722;23.268;2022-08-19T05:21:42;94848.53;;;21.16;63.03
42247;BME280;27913;42.722;23.268;2022-08-19T05:24:27;94856.50;;;21.11;63.47
42247;BME280;27913;42.722;23.268;2022-08-19T05:26:54;94790.84;;;20.87;62.85
42247;BME280;27913;42.722;23.268;2022-08-19T05:29:22;94823.13;;;21.14;62.74
42247;BME280;27913;42.722;23.268;2022-08-19T05:31:48;94849.13;;;21.29;63.37
42247;BME280;27913;42.722;23.268;2022-08-19T05:34:18;94784.66;;;20.76;63.27
42247;BME280;27913;42.722;23.268;2022-08-19T05:36:48;94785.72;;;20.81;63.64
42247;BME280;27913;42.722;23.268;2022-08-19T05:39:16;94828.41;;;21.03;63.69
42247;BME280;27913;42.722;23.268;2022-08-19T05:41:47;94743.34;;;20.51;63.25
42247;BME280;27913;42.722;23.268;2022-08-19T05:44:14;94838.03;;;21.04;63.19
42247;BME280;27913;42.722;23.268;2022-08-19T05:46:43;94803.41;;;20.87;63.75
42247;BME280;27913;42.722;23.268;2022-08-19T05:49:09;94838.66;;;21.17;63.82
42247;BME280;27913;42.722;23.268;2022-08-19T05:51:36;94834.41;;;21.26;63.08
42247;BME280;27913;42.722;23.268;2022-08-19T05:54:03;94847.34;;;21.45;63.04
42247;BME280;27913;42.722;23.268;2022-08-19T05:56:30;94806.31;;;21.18;62.89
42247;BME280;27913;42.722;23.268;2022-08-19T05:59:00;94738.91;;;20.68;63.08
42247;BME280;27913;42.722;23.268;2022-08-19T06:01:26;94808.38;;;21.06;63.16
42247;BME280;27913;42.722;23.268;2022-08-19T06:03:52;94749.44;;;20.85;62.73
42247;BME280;27913;42.722;23.268;2022-08-19T06:06:18;94853.59;;;21.66;62.10
42247;BME280;27913;42.722;23.268;2022-08-19T06:08:44;94851.22;;;21.75;61.61
42247;BME280;27913;42.722;23.268;2022-08-19T06:11:23;94821.50;;;21.71;61.05
42247;BME280;27913;42.722;23.268;2022-08-19T06:13:51;94754.22;;;21.31;59.64
42247;BME280;27913;42.722;23.268;2022-08-19T06:16:19;94752.38;;;21.42;59.15
42247;BME280;27913;42.722;23.268;2022-08-19T06:18:54;94810.59;;;21.83;58.96
42247;BME280;27913;42.722;23.268;2022-08-19T06:21:23;94825.91;;;22.04;58.04
42247;BME280;27913;42.722;23.268;2022-08-19T06:23:50;94833.41;;;22.12;57.73
42247;BME280;27913;42.722;23.268;2022-08-19T06:26:18;94860.78;;;22.40;57.62
42247;BME280;27913;42.722;23.268;2022-08-19T06:28:44;94828.34;;;22.21;57.83
42247;BME280;27913;42.722;23.268;2022-08-19T06:31:21;94810.66;;;22.15;57.84
42247;BME280;27913;42.722;23.268;2022-08-19T06:33:48;94828.38;;;22.37;57.80
42247;BME280;27913;42.722;23.268;2022-08-19T06:36:25;94849.56;;;22.54;57.67
42247;BME280;27913;42.722;23.268;2022-08-19T06:38:57;94820.34;;;22.42;57.77
42247;BME280;27913;42.722;23.268;2022-08-19T06:41:24;94831.59;;;22.54;57.32
42247;BME280;27913;42.722;23.268;2022-08-19T06:43:52;94756.31;;;22.14;57.52
42247;BME280;27913;42.722;23.268;2022-08-19T06:46:18;94760.63;;;22.20;57.18
42247;BME280;27913;42.722;23.268;2022-08-19T06:48:45;94852.78;;;22.98;57.44
42247;BME280;27913;42.722;23.268;2022-08-19T06:51:12;94848.75;;;23.00;56.43
42247;BME280;27913;42.722;23.268;2022-08-19T06:53:41;94825.72;;;22.99;56.78
42247;BME280;27913;42.722;23.268;2022-08-19T06:56:06;94828.91;;;23.12;56.66
42247;BME280;27913;42.722;23.268;2022-08-19T06:58:32;94772.66;;;22.86;56.00
42247;BME280;27913;42.722;23.268;2022-08-19T07:01:04;94782.25;;;23.02;55.76
42247;BME280;27913;42.722;23.268;2022-08-19T07:03:32;94784.66;;;23.09;55.02
42247;BME280;27913;42.722;23.268;2022-08-19T07:06:09;94846.53;;;23.49;55.03
42247;BME280;27913;42.722;23.268;2022-08-19T07:08:36;94855.66;;;23.53;55.10
42247;BME280;27913;42.722;23.268;2022-08-19T07:11:05;94746.38;;;22.88;54.76
42247;BME280;27913;42.722;23.268;2022-08-19T07:13:32;94839.81;;;23.52;54.91
42247;BME280;27913;42.722;23.268;2022-08-19T07:16:11;94855.56;;;23.74;54.94
42247;BME280;27913;42.722;23.268;2022-08-19T07:18:37;94748.47;;;23.07;54.34
42247;BME280;27913;42.722;23.268;2022-08-19T07:21:08;94765.31;;;23.28;54.13
42247;BME280;27913;42.722;23.268;2022-08-19T07:23:34;94860.06;;;23.95;53.91
42247;BME280;27913;42.722;23.268;2022-08-19T07:26:19;94852.22;;;24.04;54.14
42247;BME280;27913;42.722;23.268;2022-08-19T07:28:47;94789.84;;;23.72;53.81
42247;BME280;27913;42.722;23.268;2022-08-19T07:31:17;94791.94;;;23.80;53.09
42247;BME280;27913;42.722;23.268;2022-08-19T07:33:44;94853.69;;;24.31;52.31
42247;BME280;27913;42.722;23.268;2022-08-19T07:36:13;94804.94;;;24.08;52.59
42247;BME280;27913;42.722;23.268;2022-08-19T07:38:41;94853.06;;;24.44;52.68
42247;BME280;27913;42.722;23.268;2022-08-19T07:41:11;94848.19;;;24.52;52.16
42247;BME280;27913;42.722;23.268;2022-08-19T07:43:37;94852.16;;;24.59;51.37
42247;BME280;27913;42.722;23.268;2022-08-19T07:46:02;94761.97;;;24.08;50.90
42247;BME280;27913;42.722;23.268;2022-08-19T07:48:28;94757.63;;;24.12;51.04
42247;BME280;27913;42.722;23.268;2022-08-19T07:50:55;94770.47;;;24.25;51.66
42247;BME280;27913;42.722;23.268;2022-08-19T07:53:23;94848.19;;;24.87;51.27
42247;BME280;27913;42.722;23.268;2022-08-19T07:55:49;94848.94;;;24.97;51.09
42247;BME280;27913;42.722;23.268;2022-08-19T07:58:18;94844.03;;;25.05;50.77
42247;BME280;27913;42.722;23.268;2022-08-19T08:00:46;94853.63;;;25.11;50.07
42247;BME280;27913;42.722;23.268;2022-08-19T08:03:15;94831.09;;;25.07;49.30
42247;BME280;27913;42.722;23.268;2022-08-19T08:05:41;94834.25;;;25.14;48.97
42247;BME280;27913;42.722;23.268;2022-08-19T08:08:25;94848.28;;;25.36;49.08
42247;BME280;27913;42.722;23.268;2022-08-19T08:11:10;94816.63;;;25.27;48.34
42247;BME280;27913;42.722;23.268;2022-08-19T08:13:36;94845.72;;;25.50;47.91
42247;BME280;27913;42.722;23.268;2022-08-19T08:16:02;94813.53;;;25.39;48.24
42247;BME280;27913;42.722;23.268;2022-08-19T08:18:28;94837.25;;;25.62;47.49
42247;BME280;27913;42.722;23.268;2022-08-19T08:20:56;94838.81;;;25.68;46.75
42247;BME280;27913;42.722;23.268;2022-08-19T08:23:23;94837.56;;;25.79;45.88
42247;BME280;27913;42.722;23.268;2022-08-19T08:25:51;94805.91;;;25.71;45.57
42247;BME280;27913;42.722;23.268;2022-08-19T08:28:20;94775.34;;;25.62;45.43
42247;BME280;27913;42.722;23.268;2022-08-19T08:30:47;94743.72;;;25.48;45.12
42247;BME280;27913;42.722;23.268;2022-08-19T08:33:18;94726.00;;;25.47;45.33
42247;BME280;27913;42.722;23.268;2022-08-19T08:35:44;94827.06;;;26.22;45.29
42247;BME280;27913;42.722;23.268;2022-08-19T08:38:11;94765.25;;;25.92;44.67
42247;BME280;27913;42.722;23.268;2022-08-19T08:40:49;94782.50;;;26.10;44.45
42247;BME280;27913;42.722;23.268;2022-08-19T08:43:35;94822.72;;;26.45;44.58
42247;BME280;27913;42.722;23.268;2022-08-19T08:46:08;94736.34;;;25.98;44.13
42247;BME280;27913;42.722;23.268;2022-08-19T08:48:48;94818.78;;;26.57;44.39
42247;BME280;27913;42.722;23.268;2022-08-19T08:51:40;94817.28;;;26.64;43.66
42247;BME280;27913;42.722;23.268;2022-08-19T08:54:10;94776.88;;;26.45;42.40
42247;BME280;27913;42.722;23.268;2022-08-19T08:56:38;94800.50;;;26.68;40.57
42247;BME280;27913;42.722;23.268;2022-08-19T08:59:12;94787.13;;;26.62;40.43
42247;BME280;27913;42.722;23.268;2022-08-19T09:01:42;94812.44;;;26.81;41.08
42247;BME280;27913;42.722;23.268;2022-08-19T09:04:07;94800.97;;;26.89;41.27
42247;BME280;27913;42.722;23.268;2022-08-19T09:09:51;94734.25;;;26.81;40.14
42247;BME280;27913;42.722;23.268;2022-08-19T09:15:00;94795.44;;;27.42;39.05
42247;BME280;27913;42.722;23.268;2022-08-19T09:17:30;94694.41;;;26.92;38.50
42247;BME280;27913;42.722;23.268;2022-08-19T09:22:36;94708.28;;;27.13;37.25
42247;BME280;27913;42.722;23.268;2022-08-19T09:25:03;94793.56;;;27.70;37.03
42247;BME280;27913;42.722;23.268;2022-08-19T09:27:30;94745.69;;;27.48;36.46
42247;BME280;27913;42.722;23.268;2022-08-19T09:29:55;94747.47;;;27.53;36.20
42247;BME280;27913;42.722;23.268;2022-08-19T09:32:22;94727.75;;;27.52;35.17
42247;BME280;27913;42.722;23.268;2022-08-19T09:34:47;94755.03;;;27.79;35.10
42247;BME280;27913;42.722;23.268;2022-08-19T09:37:13;94780.19;;;28.02;35.60
42247;BME280;27913;42.722;23.268;2022-08-19T09:39:39;94749.78;;;27.96;34.89
42247;BME280;27913;42.722;23.268;2022-08-19T09:42:08;94768.66;;;28.10;34.33
42247;BME280;27913;42.722;23.268;2022-08-19T09:44:42;94774.75;;;28.16;34.23
42247;BME280;27913;42.722;23.268;2022-08-19T09:47:09;94770.00;;;28.22;34.19
42247;BME280;27913;42.722;23.268;2022-08-19T09:49:36;94752.31;;;28.16;34.47
42247;BME280;27913;42.722;23.268;2022-08-19T09:52:03;94748.88;;;28.24;33.89
42247;BME280;27913;42.722;23.268;2022-08-19T09:54:29;94742.06;;;28.27;33.58
42247;BME280;27913;42.722;23.268;2022-08-19T09:56:55;94768.03;;;28.51;33.37
42247;BME280;27913;42.722;23.268;2022-08-19T09:59:23;94724.34;;;28.34;33.18
42247;BME280;27913;42.722;23.268;2022-08-19T10:01:49;94755.84;;;28.62;32.64
42247;BME280;27913;42.722;23.268;2022-08-19T10:04:16;94761.00;;;28.73;32.85
42247;BME280;27913;42.722;23.268;2022-08-19T10:06:41;94754.03;;;28.80;32.46
42247;BME280;27913;42.722;23.268;2022-08-19T10:09:08;94740.69;;;28.84;31.98
42247;BME280;27913;42.722;23.268;2022-08-19T10:11:36;94749.47;;;28.90;31.39
42247;BME280;27913;42.722;23.268;2022-08-19T10:14:03;94645.13;;;28.34;32.10
42247;BME280;27913;42.722;23.268;2022-08-19T10:16:31;94637.88;;;28.43;32.10
42247;BME280;27913;42.722;23.268;2022-08-19T10:18:57;94742.41;;;29.12;32.10
42247;BME280;27913;42.722;23.268;2022-08-19T10:21:28;94738.78;;;29.16;32.08
42247;BME280;27913;42.722;23.268;2022-08-19T10:23:56;94683.56;;;28.86;32.00
42247;BME280;27913;42.722;23.268;2022-08-19T10:26:30;94733.09;;;29.27;32.10
42247;BME280;27913;42.722;23.268;2022-08-19T10:28:57;94707.25;;;29.21;31.80
42247;BME280;27913;42.722;23.268;2022-08-19T10:31:30;94714.31;;;29.30;31.91
42247;BME280;27913;42.722;23.268;2022-08-19T10:33:56;94706.81;;;29.36;31.53
42247;BME280;27913;42.722;23.268;2022-08-19T10:36:26;94733.94;;;29.54;31.77
42247;BME280;27913;42.722;23.268;2022-08-19T10:38:54;94635.91;;;28.99;31.40
42247;BME280;27913;42.722;23.268;2022-08-19T10:41:25;94722.31;;;29.53;31.79
42247;BME280;27913;42.722;23.268;2022-08-19T10:43:55;94705.25;;;29.44;31.46
42247;BME280;27913;42.722;23.268;2022-08-19T10:46:23;94721.03;;;29.60;31.51
42247;BME280;27913;42.722;23.268;2022-08-19T10:48:49;94727.09;;;29.57;31.67
42247;BME280;27913;42.722;23.268;2022-08-19T10:51:16;94727.47;;;29.64;31.80
42247;BME280;27913;42.722;23.268;2022-08-19T10:54:00;94693.78;;;29.56;31.73
42247;BME280;27913;42.722;23.268;2022-08-19T10:56:27;94714.09;;;29.68;31.49
42247;BME280;27913;42.722;23.268;2022-08-19T10:59:11;94695.28;;;29.62;31.11
42247;BME280;27913;42.722;23.268;2022-08-19T11:01:39;94710.75;;;29.80;31.13
42247;BME280;27913;42.722;23.268;2022-08-19T11:04:05;94688.25;;;29.70;31.20
42247;BME280;27913;42.722;23.268;2022-08-19T11:06:35;94714.22;;;29.89;31.09
42247;BME280;27913;42.722;23.268;2022-08-19T11:09:03;94661.47;;;29.60;31.24
42247;BME280;27913;42.722;23.268;2022-08-19T11:11:28;94714.41;;;30.01;30.76
42247;BME280;27913;42.722;23.268;2022-08-19T11:13:57;94703.72;;;30.14;31.35
42247;BME280;27913;42.722;23.268;2022-08-19T11:16:24;94708.47;;;30.17;30.94
42247;BME280;27913;42.722;23.268;2022-08-19T11:18:54;94680.75;;;30.11;30.92
42247;BME280;27913;42.722;23.268;2022-08-19T11:21:21;94675.03;;;30.13;30.54
42247;BME280;27913;42.722;23.268;2022-08-19T11:23:49;94588.84;;;29.62;30.36
42247;BME280;27913;42.722;23.268;2022-08-19T11:26:16;94699.09;;;30.32;30.22
42247;BME280;27913;42.722;23.268;2022-08-19T11:28:42;94675.50;;;30.15;30.45
42247;BME280;27913;42.722;23.268;2022-08-19T11:31:12;94656.88;;;30.05;30.39
42247;BME280;27913;42.722;23.268;2022-08-19T11:33:39;94690.31;;;30.35;30.27
42247;BME280;27913;42.722;23.268;2022-08-19T11:36:05;94621.31;;;29.97;29.89
42247;BME280;27913;42.722;23.268;2022-08-19T11:38:30;94686.94;;;30.47;29.82
42247;BME280;27913;42.722;23.268;2022-08-19T11:40:58;94659.19;;;30.42;29.80
42247;BME280;27913;42.722;23.268;2022-08-19T11:43:24;94677.50;;;30.62;30.14
42247;BME280;27913;42.722;23.268;2022-08-19T11:45:53;94682.41;;;30.69;29.65
42247;BME280;27913;42.722;23.268;2022-08-19T11:48:18;94651.63;;;30.65;29.35
42247;BME280;27913;42.722;23.268;2022-08-19T11:50:50;94667.50;;;30.93;29.75
42247;BME280;27913;42.722;23.268;2022-08-19T11:53:19;94671.25;;;31.10;29.79
42247;BME280;27913;42.722;23.268;2022-08-19T11:55:49;94670.22;;;31.24;29.72
42247;BME280;27913;42.722;23.268;2022-08-19T11:58:16;94575.75;;;30.78;29.38
42247;BME280;27913;42.722;23.268;2022-08-19T12:00:43;94648.56;;;31.36;29.46
42247;BME280;27913;42.722;23.268;2022-08-19T12:03:11;94570.34;;;31.08;28.80
42247;BME280;27913;42.722;23.268;2022-08-19T12:05:38;94633.44;;;31.56;28.65
42247;BME280;27913;42.722;23.268;2022-08-19T12:08:05;94599.03;;;31.39;28.76
42247;BME280;27913;42.722;23.268;2022-08-19T12:10:32;94627.94;;;31.65;28.89
42247;BME280;27913;42.722;23.268;2022-08-19T12:12:58;94627.38;;;31.72;28.33
42247;BME280;27913;42.722;23.268;2022-08-19T12:15:23;94612.03;;;31.76;28.36
42247;BME280;27913;42.722;23.268;2022-08-19T12:17:49;94623.84;;;31.93;28.56
42247;BME280;27913;42.722;23.268;2022-08-19T12:20:15;94569.34;;;31.77;28.32
42247;BME280;27913;42.722;23.268;2022-08-19T12:22:42;94638.06;;;32.33;27.86
42247;BME280;27913;42.722;23.268;2022-08-19T12:25:11;94557.50;;;31.94;27.93
42247;BME280;27913;42.722;23.268;2022-08-19T12:27:40;94608.00;;;32.29;27.36
42247;BME280;27913;42.722;23.268;2022-08-19T12:30:09;94610.38;;;32.30;27.32
42247;BME280;27913;42.722;23.268;2022-08-19T12:32:35;94634.00;;;32.51;26.97
42247;BME280;27913;42.722;23.268;2022-08-19T12:35:02;94603.28;;;32.38;27.13
42247;BME280;27913;42.722;23.268;2022-08-19T12:37:27;94608.94;;;32.46;27.44
42247;BME280;27913;42.722;23.268;2022-08-19T12:39:53;94607.94;;;32.50;27.35
42247;BME280;27913;42.722;23.268;2022-08-19T12:42:19;94607.88;;;32.72;26.98
42247;BME280;27913;42.722;23.268;2022-08-19T12:44:47;94552.16;;;32.44;26.87
42247;BME280;27913;42.722;23.268;2022-08-19T12:47:13;94620.22;;;32.82;27.13
42247;BME280;27913;42.722;23.268;2022-08-19T12:49:42;94570.88;;;32.58;26.84
42247;BME280;27913;42.722;23.268;2022-08-19T12:52:09;94599.47;;;32.77;26.32
42247;BME280;27913;42.722;23.268;2022-08-19T12:54:36;94613.06;;;32.89;26.60
42247;BME280;27913;42.722;23.268;2022-08-19T12:57:06;94608.50;;;33.06;26.71
42247;BME280;27913;42.722;23.268;2022-08-19T12:59:33;94603.19;;;33.10;26.92
42247;BME280;27913;42.722;23.268;2022-08-19T13:01:59;94566.13;;;32.80;26.13
42247;BME280;27913;42.722;23.268;2022-08-19T13:04:24;94562.84;;;32.74;26.15
42247;BME280;27913;42.722;23.268;2022-08-19T13:06:50;94595.25;;;33.05;26.19